createdAt,value
2017-10-24T00:02:15.991Z,0.47
2017-10-24T00:04:42.735Z,0.50
2017-10-24T00:07:09.434Z,0.40
2017-10-24T00:09:36.128Z,0.60
2017-10-24T00:12:02.846Z,0.43
2017-10-24T00:14:29.544Z,0.50
2017-10-24T00:16:56.241Z,0.60
2017-10-24T00:19:23.000Z,0.50
2017-10-24T00:21:49.693Z,0.53
2017-10-24T00:24:16.390Z,0.50
2017-10-24T00:26:43.099Z,0.47
2017-10-24T00:29:09.778Z,0.60
2017-10-24T00:31:36.467Z,0.47
2017-10-24T00:34:03.200Z,0.63
2017-10-24T00:36:29.892Z,0.63
2017-10-24T00:38:56.603Z,0.50
2017-10-24T00:41:23.330Z,0.80
2017-10-24T00:43:50.030Z,0.70
2017-10-24T00:46:16.722Z,0.70
2017-10-24T00:48:43.446Z,0.50
2017-10-24T00:51:10.142Z,0.90
2017-10-24T00:53:36.879Z,1.10
2017-10-24T00:56:03.634Z,0.60
2017-10-24T00:58:30.379Z,0.60
2017-10-24T01:00:57.114Z,0.70
2017-10-24T01:03:23.862Z,0.60
2017-10-24T01:05:50.555Z,0.60
2017-10-24T01:08:17.242Z,0.60
2017-10-24T01:10:43.975Z,0.70
2017-10-24T01:13:10.714Z,0.57
2017-10-24T01:15:37.427Z,0.50
2017-10-24T01:18:04.231Z,0.97
2017-10-24T01:20:30.942Z,0.53
2017-10-24T01:22:57.683Z,0.70
2017-10-24T01:25:24.467Z,0.67
2017-10-24T01:27:51.188Z,0.63
2017-10-24T01:30:17.910Z,0.60
2017-10-24T01:32:44.686Z,0.67
2017-10-24T01:35:11.434Z,0.60
2017-10-24T01:37:38.166Z,0.60
2017-10-24T01:40:04.945Z,0.40
2017-10-24T01:42:31.672Z,0.60
2017-10-24T01:44:58.423Z,0.50
2017-10-24T01:47:25.155Z,0.87
2017-10-24T01:49:51.896Z,0.80
2017-10-24T01:52:18.630Z,0.67
2017-10-24T01:54:45.397Z,0.67
2017-10-24T01:57:12.137Z,0.63
2017-10-24T01:59:38.854Z,0.60
2017-10-24T02:02:05.585Z,0.70
2017-10-24T02:04:32.278Z,0.50
2017-10-24T02:06:58.969Z,0.53
2017-10-24T02:09:25.697Z,0.60
2017-10-24T02:11:52.427Z,0.50
2017-10-24T02:14:19.131Z,0.60
2017-10-24T02:16:45.862Z,0.50
2017-10-24T02:19:12.591Z,0.80
2017-10-24T02:21:39.318Z,0.53
2017-10-24T02:24:06.053Z,0.70
2017-10-24T02:26:32.768Z,0.53
2017-10-24T02:28:59.486Z,0.60
2017-10-24T02:31:26.226Z,0.50
2017-10-24T02:33:52.926Z,0.60
2017-10-24T02:36:19.629Z,0.70
2017-10-24T02:38:46.353Z,0.70
2017-10-24T02:41:13.050Z,1.40
2017-10-24T02:43:39.746Z,0.90
2017-10-24T02:46:06.526Z,0.40
2017-10-24T02:48:33.230Z,0.50
2017-10-24T02:50:59.942Z,0.70
2017-10-24T02:53:26.700Z,0.40
2017-10-24T02:55:53.398Z,0.50
2017-10-24T02:58:20.087Z,0.50
2017-10-24T03:00:46.813Z,0.50
2017-10-24T03:03:13.531Z,0.50
2017-10-24T03:05:40.232Z,0.50
2017-10-24T03:08:06.972Z,0.60
2017-10-24T03:10:33.659Z,0.43
2017-10-24T03:13:00.337Z,0.50
2017-10-24T03:15:27.062Z,0.40
2017-10-24T03:17:53.766Z,0.53
2017-10-24T03:20:20.470Z,0.60
2017-10-24T03:22:47.198Z,0.60
2017-10-24T03:25:13.898Z,0.47
2017-10-24T03:27:40.611Z,0.60
2017-10-24T03:30:07.374Z,0.50
2017-10-24T03:32:34.072Z,0.50
2017-10-24T03:35:00.760Z,0.67
2017-10-24T03:37:27.485Z,0.60
2017-10-24T03:39:54.171Z,0.50
2017-10-24T03:42:20.869Z,0.60
2017-10-24T03:44:47.590Z,0.90
2017-10-24T03:47:14.312Z,0.43
2017-10-24T03:49:41.010Z,0.60
2017-10-24T03:52:07.728Z,0.50
2017-10-24T03:54:34.450Z,0.70
2017-10-24T03:57:01.177Z,0.50
2017-10-24T03:59:27.890Z,0.40
2017-10-24T04:01:54.590Z,0.80
2017-10-24T04:04:21.305Z,0.60
2017-10-24T04:06:48.063Z,0.70
2017-10-24T04:09:14.752Z,0.67
2017-10-24T04:11:41.470Z,0.63
2017-10-24T04:14:08.201Z,0.80
2017-10-24T04:16:34.890Z,0.53
2017-10-24T04:19:01.614Z,0.80
2017-10-24T04:21:28.366Z,0.87
2017-10-24T04:23:55.096Z,0.77
2017-10-24T04:26:21.825Z,0.70
2017-10-24T04:28:48.576Z,0.50
2017-10-24T04:31:15.339Z,0.70
2017-10-24T04:33:42.059Z,0.80
2017-10-24T04:36:08.757Z,0.80
2017-10-24T04:38:35.455Z,0.77
2017-10-24T04:41:02.139Z,0.77
2017-10-24T04:43:28.856Z,1.10
2017-10-24T04:45:55.554Z,0.80
2017-10-24T04:48:22.256Z,1.27
2017-10-24T04:50:49.006Z,1.03
2017-10-24T04:53:15.702Z,0.97
2017-10-24T04:55:42.381Z,0.73
2017-10-24T04:58:09.094Z,0.70
2017-10-24T05:00:35.797Z,0.80
2017-10-24T05:03:02.495Z,0.93
2017-10-24T05:05:29.203Z,0.80
2017-10-24T05:07:55.911Z,0.80
2017-10-24T05:10:22.606Z,0.77
2017-10-24T05:12:49.330Z,0.97
2017-10-24T05:15:16.019Z,1.20
2017-10-24T05:17:42.707Z,1.23
2017-10-24T05:20:09.448Z,1.00
2017-10-24T05:22:36.143Z,1.27
2017-10-24T05:25:02.846Z,0.80
2017-10-24T05:27:29.603Z,1.10
2017-10-24T05:29:56.308Z,2.03
2017-10-24T05:32:22.995Z,1.27
2017-10-24T05:34:49.711Z,1.20
2017-10-24T05:37:16.401Z,1.13
2017-10-24T05:39:43.092Z,1.07
2017-10-24T05:42:09.802Z,1.80
2017-10-24T05:44:36.491Z,1.50
2017-10-24T05:47:03.211Z,1.30
2017-10-24T05:49:29.946Z,1.50
2017-10-24T05:51:56.641Z,1.17
2017-10-24T05:54:23.404Z,1.43
2017-10-24T05:56:50.158Z,1.30
2017-10-24T05:59:16.848Z,1.30
2017-10-24T06:01:43.551Z,1.47
2017-10-24T06:04:10.271Z,1.23
2017-10-24T06:06:36.964Z,1.40
2017-10-24T06:09:03.678Z,1.50
2017-10-24T06:11:30.406Z,1.27
2017-10-24T06:13:57.102Z,1.60
2017-10-24T06:16:23.882Z,1.20
2017-10-24T06:18:50.624Z,1.63
2017-10-24T06:21:17.339Z,1.20
2017-10-24T06:23:44.023Z,1.37
2017-10-24T06:26:10.747Z,2.50
2017-10-24T06:28:37.443Z,1.77
2017-10-24T06:31:04.133Z,1.00
2017-10-24T06:33:30.844Z,0.50
2017-10-24T06:35:57.546Z,0.70
2017-10-24T06:38:24.285Z,0.70
2017-10-24T06:40:51.022Z,0.60
2017-10-24T06:43:17.716Z,0.50
2017-10-24T06:45:44.415Z,0.63
2017-10-24T06:48:11.143Z,0.40
2017-10-24T06:50:37.846Z,0.50
2017-10-24T06:53:04.624Z,0.53
2017-10-24T06:55:31.354Z,0.50
2017-10-24T06:57:58.043Z,0.50
2017-10-24T07:00:24.742Z,0.60
2017-10-24T07:02:51.475Z,0.93
2017-10-24T07:05:18.189Z,0.50
2017-10-24T07:07:44.935Z,0.50
2017-10-24T07:10:11.682Z,0.40
2017-10-24T07:12:38.393Z,0.60
2017-10-24T07:15:05.119Z,0.53
2017-10-24T07:17:31.864Z,0.50
2017-10-24T07:19:58.573Z,0.60
2017-10-24T07:22:25.274Z,0.67
2017-10-24T07:24:51.986Z,0.50
2017-10-24T07:27:18.704Z,0.60
2017-10-24T07:29:45.417Z,0.70
2017-10-24T07:32:12.140Z,0.50
2017-10-24T07:34:38.875Z,0.50
2017-10-24T07:37:05.574Z,0.50
2017-10-24T07:39:32.365Z,0.40
2017-10-24T07:41:59.116Z,0.40
2017-10-24T07:44:29.749Z,0.40
2017-10-24T07:46:56.480Z,0.67
2017-10-24T07:49:23.173Z,0.63
2017-10-24T07:51:49.865Z,0.73
2017-10-24T07:54:16.633Z,0.70
2017-10-24T07:56:43.349Z,0.63
2017-10-24T07:59:10.144Z,0.50
2017-10-24T08:01:36.869Z,0.50
2017-10-24T08:04:03.567Z,0.70
2017-10-24T08:06:30.321Z,0.53
2017-10-24T08:08:57.069Z,0.77
2017-10-24T08:11:23.854Z,0.67
2017-10-24T08:13:50.557Z,0.67
2017-10-24T08:16:17.299Z,0.50
2017-10-24T08:18:43.990Z,0.60
2017-10-24T08:21:10.701Z,0.50
2017-10-24T08:23:37.478Z,0.70
2017-10-24T08:26:04.179Z,0.50
2017-10-24T08:28:30.866Z,0.40
2017-10-24T08:30:57.584Z,0.83
2017-10-24T08:33:24.276Z,0.60
2017-10-24T08:35:51.039Z,0.60
2017-10-24T08:38:17.847Z,0.67
2017-10-24T08:40:44.566Z,0.50
2017-10-24T08:43:11.270Z,0.87
2017-10-24T08:45:38.060Z,0.50
2017-10-24T08:48:04.760Z,0.47
2017-10-24T08:50:31.482Z,0.50
2017-10-24T08:52:58.223Z,0.50
2017-10-24T08:55:24.937Z,0.60
2017-10-24T08:57:51.627Z,0.40
2017-10-24T09:00:18.394Z,0.40
2017-10-24T09:02:45.083Z,0.53
2017-10-24T09:05:11.782Z,0.40
2017-10-24T09:07:38.503Z,0.40
2017-10-24T09:10:05.181Z,0.47
2017-10-24T09:12:32.870Z,1.60
2017-10-24T09:14:59.596Z,0.50
2017-10-24T09:17:43.047Z,0.40
2017-10-24T09:20:09.784Z,0.50
2017-10-24T09:22:36.488Z,0.50
2017-10-24T09:25:03.203Z,0.47
2017-10-24T09:27:29.916Z,0.40
2017-10-24T09:29:56.608Z,0.50
2017-10-24T09:32:23.993Z,0.33
2017-10-24T09:34:50.786Z,0.40
2017-10-24T09:37:17.509Z,0.50
2017-10-24T09:39:44.231Z,0.40
2017-10-24T09:42:10.962Z,0.60
2017-10-24T09:44:37.669Z,0.50
2017-10-24T09:47:04.362Z,0.50
2017-10-24T09:49:31.142Z,0.37
2017-10-24T09:51:57.830Z,0.60
2017-10-24T09:54:24.559Z,0.67
2017-10-24T09:56:51.312Z,0.50
2017-10-24T09:59:35.666Z,0.50
2017-10-24T10:02:02.401Z,0.30
2017-10-24T10:04:29.102Z,0.40
2017-10-24T10:06:55.816Z,0.40
2017-10-24T10:09:22.537Z,0.60
2017-10-24T10:11:49.226Z,0.40
2017-10-24T10:14:15.917Z,0.30
2017-10-24T10:16:42.630Z,0.50
2017-10-24T10:19:09.365Z,0.40
2017-10-24T10:21:36.080Z,0.40
2017-10-24T10:24:02.851Z,0.40
2017-10-24T10:26:29.578Z,0.40
2017-10-24T10:28:56.339Z,0.40
2017-10-24T10:31:23.131Z,0.40
2017-10-24T10:33:49.868Z,0.40
2017-10-24T10:36:16.592Z,0.30
2017-10-24T10:38:43.341Z,0.30
2017-10-24T10:41:10.052Z,0.40
2017-10-24T10:43:36.755Z,0.40
2017-10-24T10:46:03.514Z,0.40
2017-10-24T10:48:30.214Z,0.40
2017-10-24T10:50:56.912Z,0.37
2017-10-24T10:53:23.661Z,0.30
2017-10-24T10:55:50.363Z,0.40
2017-10-24T10:58:17.082Z,0.40
2017-10-24T11:00:43.837Z,0.50
2017-10-24T11:03:10.548Z,0.40
2017-10-24T11:05:37.251Z,1.00
2017-10-24T11:08:04.064Z,0.50
2017-10-24T11:10:33.701Z,0.40
2017-10-24T11:13:00.433Z,0.40
2017-10-24T11:15:27.193Z,0.50
2017-10-24T11:17:53.888Z,0.47
2017-10-24T11:20:20.588Z,0.40
2017-10-24T11:22:47.332Z,0.43
2017-10-24T11:25:14.033Z,0.40
2017-10-24T11:27:40.830Z,0.33
2017-10-24T11:30:07.566Z,0.30
2017-10-24T11:32:34.301Z,0.50
2017-10-24T11:35:01.073Z,0.40
2017-10-24T11:37:27.802Z,0.50
2017-10-24T11:39:54.515Z,0.50
2017-10-24T11:42:21.240Z,0.50
2017-10-24T11:44:47.983Z,0.50
2017-10-24T11:47:14.890Z,0.50
2017-10-24T11:49:41.677Z,0.53
2017-10-24T11:52:08.394Z,0.50
2017-10-24T11:54:36.155Z,0.50
2017-10-24T11:57:02.908Z,0.50
2017-10-24T11:59:29.779Z,0.43
2017-10-24T12:01:56.469Z,0.40
2017-10-24T12:04:23.186Z,0.40
2017-10-24T12:06:49.996Z,0.40
2017-10-24T12:09:16.693Z,0.47
2017-10-24T12:11:43.386Z,0.40
2017-10-24T12:14:10.109Z,0.43
2017-10-24T12:16:36.811Z,0.40
2017-10-24T12:19:03.502Z,0.67
2017-10-24T12:21:30.305Z,0.60
2017-10-24T12:23:57.003Z,0.73
2017-10-24T12:26:23.697Z,0.60
2017-10-24T12:28:50.430Z,0.40
2017-10-24T12:31:17.155Z,0.80
2017-10-24T12:33:43.859Z,0.50
2017-10-24T12:36:10.601Z,0.60
2017-10-24T12:38:37.312Z,0.50
2017-10-24T12:41:04.042Z,0.50
2017-10-24T12:43:30.774Z,0.50
2017-10-24T12:46:00.258Z,0.70
2017-10-24T12:48:26.999Z,0.90
2017-10-24T12:50:57.638Z,0.50
2017-10-24T12:53:24.359Z,0.70
2017-10-24T12:55:51.091Z,0.60
2017-10-24T12:58:18.536Z,0.60
2017-10-24T13:00:45.242Z,0.40
2017-10-24T13:03:11.952Z,0.70
2017-10-24T13:05:38.798Z,0.50
2017-10-24T13:08:05.607Z,0.53
2017-10-24T13:10:32.351Z,0.50
2017-10-24T13:12:59.092Z,0.40
2017-10-24T13:15:25.818Z,0.70
2017-10-24T13:17:52.545Z,0.50
2017-10-24T13:20:19.277Z,0.47
2017-10-24T13:22:45.975Z,0.50
2017-10-24T13:25:12.679Z,0.60
2017-10-24T13:27:39.408Z,0.60
2017-10-24T13:30:06.106Z,0.40
2017-10-24T13:32:32.824Z,0.47
2017-10-24T13:34:59.614Z,1.53
2017-10-24T13:37:26.319Z,0.50
2017-10-24T13:39:53.010Z,0.50
2017-10-24T13:42:19.734Z,0.50
2017-10-24T13:44:46.425Z,0.60
2017-10-24T13:47:13.118Z,1.43
2017-10-24T13:49:39.854Z,0.50
2017-10-24T13:52:06.556Z,0.40
2017-10-24T13:54:33.255Z,0.60
2017-10-24T13:56:59.969Z,0.43
2017-10-24T13:59:26.681Z,3.00
2017-10-24T14:01:53.443Z,0.60
2017-10-24T14:04:25.881Z,1.17
2017-10-24T14:06:58.310Z,0.50
2017-10-24T14:09:30.838Z,0.50
2017-10-24T14:11:57.534Z,0.57
2017-10-24T14:14:24.263Z,0.67
2017-10-24T14:16:51.070Z,0.70
2017-10-24T14:19:17.853Z,0.60
2017-10-24T14:21:44.559Z,0.70
2017-10-24T14:24:11.277Z,0.57
2017-10-24T14:26:37.970Z,0.60
2017-10-24T14:29:05.360Z,0.60
2017-10-24T14:31:32.523Z,0.53
2017-10-24T14:33:59.345Z,0.70
2017-10-24T14:36:26.062Z,0.70
2017-10-24T14:38:52.792Z,1.03
2017-10-24T14:41:19.496Z,0.83
2017-10-24T14:43:46.197Z,0.77
2017-10-24T14:46:12.914Z,0.77
2017-10-24T14:48:40.107Z,0.77
2017-10-24T14:51:06.839Z,0.90
2017-10-24T14:53:33.571Z,0.60
2017-10-24T14:56:00.292Z,0.90
2017-10-24T14:58:26.985Z,1.00
2017-10-24T15:00:53.701Z,0.90
2017-10-24T15:03:20.414Z,0.80
2017-10-24T15:05:47.123Z,0.80
2017-10-24T15:08:13.942Z,0.90
2017-10-24T15:10:40.650Z,1.30
2017-10-24T15:13:07.430Z,1.03
2017-10-24T15:15:34.354Z,1.60
2017-10-24T15:18:01.055Z,1.03
2017-10-24T15:20:27.771Z,1.40
2017-10-24T15:22:54.482Z,1.00
2017-10-24T15:25:21.182Z,0.97
2017-10-24T15:27:47.892Z,1.20
2017-10-24T15:30:14.762Z,1.23
2017-10-24T15:32:41.567Z,0.97
2017-10-24T15:35:08.368Z,1.13
2017-10-24T15:37:35.096Z,1.40
2017-10-24T15:40:01.799Z,1.17
2017-10-24T15:42:28.583Z,1.40
2017-10-24T15:44:55.306Z,1.40
2017-10-24T15:47:22.010Z,1.20
2017-10-24T15:49:48.965Z,1.47
2017-10-24T15:52:15.762Z,1.00
2017-10-24T15:54:42.459Z,1.10
2017-10-24T15:57:09.150Z,1.10
2017-10-24T15:59:35.885Z,1.17
2017-10-24T16:02:02.595Z,1.60
2017-10-24T16:04:29.282Z,1.30
2017-10-24T16:06:56.019Z,1.30
2017-10-24T16:09:22.734Z,1.20
2017-10-24T16:11:49.612Z,1.40
2017-10-24T16:14:16.353Z,1.13
2017-10-24T16:16:43.053Z,1.00
2017-10-24T16:19:09.753Z,1.10
2017-10-24T16:21:36.470Z,1.10
2017-10-24T16:24:03.192Z,1.10
2017-10-24T16:26:29.903Z,0.93
2017-10-24T16:28:56.623Z,1.03
2017-10-24T16:31:23.341Z,1.27
2017-10-24T16:33:50.033Z,1.20
2017-10-24T16:36:16.759Z,1.67
2017-10-24T16:38:43.488Z,1.40
2017-10-24T16:41:10.201Z,1.20
2017-10-24T16:43:36.918Z,1.33
2017-10-24T16:46:03.615Z,1.37
2017-10-24T16:48:30.320Z,1.63
2017-10-24T16:50:57.236Z,1.67
2017-10-24T16:53:23.939Z,1.53
2017-10-24T16:55:50.647Z,1.20
2017-10-24T16:58:17.377Z,1.07
2017-10-24T17:00:44.124Z,1.83
2017-10-24T17:03:10.820Z,2.00
2017-10-24T17:05:37.534Z,1.83
2017-10-24T17:08:04.231Z,1.10
2017-10-24T17:10:30.943Z,1.20
2017-10-24T17:12:57.718Z,1.40
2017-10-24T17:15:24.410Z,1.30
2017-10-24T17:17:51.107Z,1.47
2017-10-24T17:20:17.849Z,1.70
2017-10-24T17:22:44.542Z,1.33
2017-10-24T17:25:11.234Z,1.50
2017-10-24T17:27:37.963Z,1.20
2017-10-24T17:30:04.666Z,1.40
2017-10-24T17:32:31.365Z,1.53
2017-10-24T17:34:58.093Z,1.10
2017-10-24T17:37:24.800Z,1.10
2017-10-24T17:39:51.502Z,1.07
2017-10-24T17:42:18.242Z,1.00
2017-10-24T17:44:44.937Z,1.20
2017-10-24T17:47:11.666Z,1.13
2017-10-24T17:49:38.380Z,1.30
2017-10-24T17:52:05.075Z,1.13
2017-10-24T17:54:31.795Z,1.20
2017-10-24T17:56:58.531Z,1.20
2017-10-24T17:59:25.240Z,1.00
2017-10-24T18:01:51.957Z,1.13
2017-10-24T18:04:18.674Z,1.10
2017-10-24T18:06:47.124Z,1.10
2017-10-24T18:09:13.857Z,1.03
2017-10-24T18:11:40.582Z,1.10
2017-10-24T18:14:07.287Z,1.10
2017-10-24T18:16:33.987Z,1.30
2017-10-24T18:19:00.719Z,1.13
2017-10-24T18:21:27.426Z,1.10
2017-10-24T18:23:54.119Z,1.10
2017-10-24T18:26:20.839Z,1.00
2017-10-24T18:28:47.543Z,1.03
2017-10-24T18:31:14.253Z,1.00
2017-10-24T18:33:41.006Z,1.30
2017-10-24T18:36:07.701Z,1.37
2017-10-24T18:38:34.395Z,1.93
2017-10-24T18:41:01.126Z,1.23
2017-10-24T18:43:27.861Z,1.37
2017-10-24T18:45:54.569Z,1.27
2017-10-24T18:48:21.322Z,1.27
2017-10-24T18:50:48.059Z,1.20
2017-10-24T18:53:14.837Z,1.40
2017-10-24T18:55:41.637Z,1.57
2017-10-24T18:58:08.379Z,1.17
2017-10-24T19:00:35.143Z,1.70
2017-10-24T19:03:01.916Z,1.83
2017-10-24T19:05:28.657Z,1.57
2017-10-24T19:07:55.410Z,1.30
2017-10-24T19:10:22.171Z,1.30
2017-10-24T19:12:48.964Z,1.40
2017-10-24T19:15:15.765Z,1.30
2017-10-24T19:17:42.611Z,1.43
2017-10-24T19:20:09.316Z,1.43
2017-10-24T19:22:36.021Z,1.30
2017-10-24T19:25:03.303Z,1.47
2017-10-24T19:27:30.062Z,1.20
2017-10-24T19:29:56.796Z,1.20
2017-10-24T19:32:23.555Z,1.30
2017-10-24T19:34:50.261Z,1.20
2017-10-24T19:37:17.015Z,1.30
2017-10-24T19:39:43.751Z,1.30
2017-10-24T19:42:10.555Z,1.07
2017-10-24T19:44:47.380Z,1.20
2017-10-24T19:47:14.105Z,1.00
2017-10-24T19:49:40.811Z,1.20
2017-10-24T19:52:07.566Z,1.33
2017-10-24T19:54:34.331Z,1.10
2017-10-24T19:57:01.067Z,1.20
2017-10-24T19:59:27.784Z,1.57
2017-10-24T20:01:54.563Z,1.03
2017-10-24T20:04:21.285Z,1.40
2017-10-24T20:06:48.099Z,1.30
2017-10-24T20:09:14.850Z,1.30
2017-10-24T20:11:41.592Z,1.40
2017-10-24T20:14:08.308Z,1.83
2017-10-24T20:16:35.057Z,1.40
2017-10-24T20:19:01.765Z,1.00
2017-10-24T20:21:28.499Z,1.37
2017-10-24T20:23:55.229Z,1.20
2017-10-24T20:26:22.908Z,1.10
2017-10-24T20:28:49.611Z,1.17
2017-10-24T20:31:16.386Z,1.40
2017-10-24T20:33:43.104Z,1.33
2017-10-24T20:36:10.152Z,1.10
2017-10-24T20:38:37.542Z,1.33
2017-10-24T20:41:04.964Z,1.40
2017-10-24T20:43:31.720Z,1.20
2017-10-24T20:45:58.467Z,1.50
2017-10-24T20:48:25.192Z,1.20
2017-10-24T20:50:51.931Z,1.03
2017-10-24T20:53:18.686Z,1.10
2017-10-24T20:55:45.408Z,1.47
2017-10-24T20:58:12.112Z,1.20
2017-10-24T21:00:38.853Z,1.20
2017-10-24T21:03:06.212Z,1.00
2017-10-24T21:05:32.919Z,0.83
2017-10-24T21:07:59.720Z,1.20
2017-10-24T21:10:26.433Z,1.00
2017-10-24T21:12:53.141Z,1.20
2017-10-24T21:15:19.882Z,0.90
2017-10-24T21:17:46.588Z,1.10
2017-10-24T21:20:13.304Z,0.90
2017-10-24T21:22:40.026Z,1.13
2017-10-24T21:25:06.727Z,1.10
2017-10-24T21:27:33.471Z,1.50
2017-10-24T21:30:00.192Z,1.00
2017-10-24T21:32:26.900Z,0.90
2017-10-24T21:34:53.598Z,1.10
2017-10-24T21:37:20.343Z,1.07
2017-10-24T21:39:47.040Z,1.07
2017-10-24T21:42:13.744Z,1.20
2017-10-24T21:44:40.473Z,1.10
2017-10-24T21:47:07.160Z,1.20
2017-10-24T21:49:33.891Z,1.30
2017-10-24T21:52:00.611Z,1.57
2017-10-24T21:54:27.304Z,1.33
2017-10-24T21:56:54.021Z,1.40
2017-10-24T21:59:20.742Z,1.57
2017-10-24T22:01:47.435Z,1.17
2017-10-24T22:04:14.148Z,1.10
2017-10-24T22:06:40.877Z,1.20
2017-10-24T22:09:07.587Z,1.30
2017-10-24T22:11:34.304Z,1.00
2017-10-24T22:14:01.028Z,0.80
2017-10-24T22:16:27.735Z,1.13
2017-10-24T22:18:54.444Z,0.83
2017-10-24T22:21:21.173Z,1.00
2017-10-24T22:23:47.865Z,1.20
2017-10-24T22:26:14.586Z,1.17
2017-10-24T22:28:41.356Z,1.00
2017-10-24T22:31:08.083Z,1.07
2017-10-24T22:33:34.776Z,1.03
2017-10-24T22:36:01.500Z,0.90
2017-10-24T22:38:28.207Z,1.20
2017-10-24T22:40:54.898Z,1.03
2017-10-24T22:43:21.620Z,1.40
2017-10-24T22:45:48.321Z,1.50
2017-10-24T22:48:15.035Z,1.50
2017-10-24T22:50:41.767Z,1.87
2017-10-24T22:53:08.473Z,1.40
2017-10-24T22:55:35.190Z,1.47
2017-10-24T22:58:01.903Z,1.70
2017-10-24T23:00:28.623Z,1.63
2017-10-24T23:02:55.356Z,1.20
2017-10-24T23:05:22.080Z,1.53
2017-10-24T23:07:48.818Z,1.67
2017-10-24T23:10:15.515Z,1.87
2017-10-24T23:12:42.270Z,1.20
2017-10-24T23:15:09.004Z,1.73
2017-10-24T23:17:35.695Z,1.53
2017-10-24T23:20:02.422Z,1.90
2017-10-24T23:22:29.167Z,2.30
2017-10-24T23:24:55.863Z,1.90
2017-10-24T23:27:22.618Z,1.90
2017-10-24T23:29:49.312Z,1.90
2017-10-24T23:32:16.014Z,2.53
2017-10-24T23:34:42.729Z,1.70
2017-10-24T23:37:09.445Z,1.90
2017-10-24T23:39:36.159Z,2.33
2017-10-24T23:42:02.889Z,3.20
2017-10-24T23:44:29.586Z,2.33
2017-10-24T23:46:56.280Z,2.90
2017-10-24T23:49:23.004Z,3.30
2017-10-24T23:51:49.706Z,4.20
2017-10-24T23:54:16.403Z,4.03
2017-10-24T23:56:43.122Z,3.53
2017-10-24T23:59:09.852Z,3.93
